Time,TemperatureF,DewpointF,PressureIn,WindDirection,WindDirectionDegrees,WindSpeedMPH,WindSpeedGustMPH,Humidity,HourlyPrecipIn,Conditions,Clouds,dailyrainin,SoftwareType,DateUTC
2013-06-05 00:02:00,52.0,37.2,30.04,SW,236,0.0,0.0,57,0.00,,SCT250,0.00,VWS V14.01,2013-06-05 04:02:00,
2013-06-05 00:05:00,52.2,37.0,30.04,SW,236,0.0,0.0,56,0.00,,SCT250,0.00,VWS V14.01,2013-06-05 04:05:00,
2013-06-05 00:08:00,52.0,37.2,30.04,SW,236,0.0,0.0,57,0.00,,SCT250,0.00,VWS V14.01,2013-06-05 04:08:00,
2013-06-05 00:13:00,51.6,37.3,30.04,SW,236,0.0,0.0,58,0.00,,SCT250,0.00,VWS V14.01,2013-06-05 04:13:00,
2013-06-05 00:18:00,51.6,37.3,30.04,SW,236,0.0,0.0,58,0.00,,SCT250,0.00,VWS V14.01,2013-06-05 04:18:00,
2013-06-05 00:21:00,51.6,37.3,30.04,SW,236,0.0,0.0,58,0.00,,SCT250,0.00,VWS V14.01,2013-06-05 04:21:00,
2013-06-05 00:26:00,51.4,37.2,30.07,SW,215,0.0,2.7,58,0.00,,SCT250,0.00,VWS V14.01,2013-06-05 04:26:00,
2013-06-05 00:31:00,51.3,37.0,30.07,SW,215,0.0,2.7,58,0.00,,SCT250,0.00,VWS V14.01,2013-06-05 04:31:00,
2013-06-05 00:36:00,51.6,37.3,30.07,SW,215,0.0,0.0,58,0.00,,SCT250,0.00,VWS V14.01,2013-06-05 04:36:00,
2013-06-05 00:41:00,51.1,36.8,30.07,SW,215,0.0,0.0,58,0.00,,SCT250,0.00,VWS V14.01,2013-06-05 04:41:00,
2013-06-05 00:46:00,50.9,37.1,30.07,SW,215,0.0,0.0,59,0.00,,SCT250,0.00,VWS V14.01,2013-06-05 04:46:00,
2013-06-05 00:51:00,51.1,37.7,30.07,SW,215,0.0,0.0,60,0.00,,SCT250,0.00,VWS V14.01,2013-06-05 04:51:00,
2013-06-05 00:56:00,51.3,37.9,30.07,SW,215,0.0,0.0,60,0.00,,SCT250,0.00,VWS V14.01,2013-06-05 04:56:00,
2013-06-05 01:01:00,51.1,38.1,30.07,SW,215,2.7,2.7,61,0.00,,SCT250,0.00,VWS V14.01,2013-06-05 05:01:00,
2013-06-05 01:06:00,51.3,38.3,30.07,SW,215,0.0,2.2,61,0.00,,SCT250,0.00,VWS V14.01,2013-06-05 05:06:00,
2013-06-05 01:11:00,51.3,37.9,30.07,SW,215,0.0,0.0,60,0.00,,SCT250,0.00,VWS V14.01,2013-06-05 05:11:00,
2013-06-05 01:16:00,51.3,38.3,30.07,SW,215,0.0,0.0,61,0.00,,SCT250,0.00,VWS V14.01,2013-06-05 05:16:00,
2013-06-05 01:21:00,50.9,38.0,30.07,SW,215,0.0,0.0,61,0.00,,SCT250,0.00,VWS V14.01,2013-06-05 05:21:00,
2013-06-05 01:26:00,51.3,38.7,30.07,SW,215,3.6,3.6,62,0.00,,SCT250,0.00,VWS V14.01,2013-06-05 05:26:00,
2013-06-05 01:31:00,51.3,39.1,30.07,SW,215,3.1,3.6,63,0.00,,SCT250,0.00,VWS V14.01,2013-06-05 05:31:00,
2013-06-05 01:36:00,51.3,39.1,30.07,SW,233,0.0,3.6,63,0.00,,SCT250,0.00,VWS V14.01,2013-06-05 05:36:00,
2013-06-05 01:41:00,51.4,39.3,30.07,SW,232,3.1,3.6,63,0.00,,SCT250,0.00,VWS V14.01,2013-06-05 05:41:00,
2013-06-05 01:46:00,51.4,39.3,30.07,SW,231,3.1,3.6,63,0.00,,SCT250,0.00,VWS V14.01,2013-06-05 05:46:00,
2013-06-05 01:51:00,51.4,38.9,30.07,SW,232,0.0,3.1,62,0.00,,SCT250,0.00,VWS V14.01,2013-06-05 05:51:00,
2013-06-05 01:56:00,51.3,39.1,30.07,SW,232,0.0,3.1,63,0.00,,SCT250,0.00,VWS V14.01,2013-06-05 05:56:00,
2013-06-05 02:01:00,50.9,38.4,30.07,SW,232,0.0,0.0,62,0.00,,SCT250,0.00,VWS V14.01,2013-06-05 06:01:00,
2013-06-05 02:07:00,50.5,38.0,30.07,SW,232,0.0,0.0,62,0.00,,SCT220,0.00,VWS V14.01,2013-06-05 06:07:00,
2013-06-05 02:12:00,50.2,37.7,30.07,SW,232,0.0,0.0,62,0.00,,SCT220,0.00,VWS V14.01,2013-06-05 06:12:00,
2013-06-05 02:17:00,50.5,38.4,30.07,SW,232,0.0,0.0,63,0.00,,SCT220,0.00,VWS V14.01,2013-06-05 06:17:00,
2013-06-05 02:22:00,50.5,38.4,30.07,SW,232,2.7,3.1,63,0.00,,SCT220,0.00,VWS V14.01,2013-06-05 06:22:00,
2013-06-05 02:27:00,50.7,38.6,30.07,SW,232,0.0,0.0,63,0.00,,SCT220,0.00,VWS V14.01,2013-06-05 06:27:00,
2013-06-05 02:32:00,50.4,38.3,30.07,SW,232,0.0,0.0,63,0.00,,SCT220,0.00,VWS V14.01,2013-06-05 06:32:00,
2013-06-05 02:37:00,50.2,37.7,30.07,SW,231,0.0,2.2,62,0.00,,SCT220,0.00,VWS V14.01,2013-06-05 06:37:00,
2013-06-05 02:42:00,50.2,38.1,30.07,SW,231,3.1,3.1,63,0.00,,SCT220,0.00,VWS V14.01,2013-06-05 06:42:00,
2013-06-05 02:47:00,50.2,38.1,30.07,SW,216,0.0,0.0,63,0.00,,SCT220,0.00,VWS V14.01,2013-06-05 06:47:00,
2013-06-05 02:52:00,50.2,38.5,30.07,SW,229,0.0,0.0,64,0.00,,SCT220,0.00,VWS V14.01,2013-06-05 06:52:00,
2013-06-05 02:58:00,50.2,38.5,30.07,South,191,3.1,3.1,64,0.00,,SCT220,0.00,VWS V14.01,2013-06-05 06:58:00,
2013-06-05 03:03:00,50.2,38.5,30.07,SSW,208,2.2,3.6,64,0.00,,BKN220,0.00,VWS V14.01,2013-06-05 07:03:00,
2013-06-05 03:08:00,50.0,38.3,30.07,SSW,206,3.1,3.6,64,0.00,,BKN220,0.00,VWS V14.01,2013-06-05 07:08:00,
2013-06-05 03:13:00,49.6,38.0,30.07,WSW,245,0.0,3.1,64,0.00,,BKN220,0.00,VWS V14.01,2013-06-05 07:13:00,
2013-06-05 03:18:00,49.3,38.0,30.07,SW,229,0.0,0.0,65,0.00,,BKN220,0.00,VWS V14.01,2013-06-05 07:18:00,
2013-06-05 03:23:00,48.7,37.5,30.07,SW,229,0.0,0.0,65,0.00,,BKN220,0.00,VWS V14.01,2013-06-05 07:23:00,
2013-06-05 03:28:00,48.7,37.9,30.07,SW,229,0.0,0.0,66,0.00,,BKN220,0.00,VWS V14.01,2013-06-05 07:28:00,
2013-06-05 03:33:00,48.7,38.3,30.07,WSW,258,0.0,2.7,67,0.00,,BKN220,0.00,VWS V14.01,2013-06-05 07:33:00,
2013-06-05 03:39:00,48.9,38.5,30.07,WSW,258,0.0,0.0,67,0.00,,BKN220,0.00,VWS V14.01,2013-06-05 07:39:00,
2013-06-05 03:44:00,49.5,39.0,30.07,WSW,237,0.0,2.7,67,0.00,,BKN220,0.00,VWS V14.01,2013-06-05 07:44:00,
2013-06-05 03:49:00,49.5,39.0,30.07,WSW,237,0.0,0.0,67,0.00,,BKN220,0.00,VWS V14.01,2013-06-05 07:49:00,
2013-06-05 03:54:00,49.5,39.3,30.07,WSW,237,0.0,0.0,68,0.00,,BKN220,0.00,VWS V14.01,2013-06-05 07:54:00,
2013-06-05 03:59:00,49.5,39.3,30.07,WSW,237,0.0,0.0,68,0.00,,BKN220,0.00,VWS V14.01,2013-06-05 07:59:00,
2013-06-05 04:04:00,49.6,39.5,30.07,WSW,237,0.0,0.0,68,0.00,,BKN220,0.00,VWS V14.01,2013-06-05 08:04:00,
2013-06-05 04:09:00,49.6,39.5,30.07,WSW,237,0.0,0.0,68,0.00,,BKN220,0.00,VWS V14.01,2013-06-05 08:09:00,
2013-06-05 04:14:00,49.6,39.9,30.07,WSW,237,3.1,3.1,69,0.00,,BKN220,0.00,VWS V14.01,2013-06-05 08:14:00,
2013-06-05 04:19:00,50.0,39.9,30.07,WSW,237,0.0,2.2,68,0.00,,BKN220,0.00,VWS V14.01,2013-06-05 08:19:00,
2013-06-05 04:24:00,50.2,40.0,30.07,WSW,237,0.0,3.1,68,0.00,,BKN220,0.00,VWS V14.01,2013-06-05 08:24:00,
2013-06-05 04:29:00,50.2,40.0,30.07,WSW,237,0.0,0.0,68,0.00,,BKN220,0.00,VWS V14.01,2013-06-05 08:29:00,
2013-06-05 04:34:00,50.4,40.2,30.07,WSW,237,0.0,0.0,68,0.00,,BKN220,0.00,VWS V14.01,2013-06-05 08:34:00,
2013-06-05 04:39:00,50.4,40.2,30.07,SW,236,0.0,0.0,68,0.00,,BKN220,0.00,VWS V14.01,2013-06-05 08:39:00,
2013-06-05 04:44:00,50.7,40.6,30.07,SW,229,3.1,3.6,68,0.00,,BKN220,0.00,VWS V14.01,2013-06-05 08:44:00,
2013-06-05 04:49:00,50.7,40.6,30.07,SW,229,3.1,3.1,68,0.00,,BKN220,0.00,VWS V14.01,2013-06-05 08:49:00,
2013-06-05 04:54:00,50.4,40.2,30.07,SW,225,2.7,3.1,68,0.00,,BKN220,0.00,VWS V14.01,2013-06-05 08:54:00,
2013-06-05 04:59:00,50.4,40.6,30.07,SW,227,0.0,3.1,69,0.00,,BKN220,0.00,VWS V14.01,2013-06-05 08:59:00,
2013-06-05 05:04:00,50.5,40.8,30.07,SW,227,2.7,3.1,69,0.00,,BKN220,0.00,VWS V14.01,2013-06-05 09:04:00,
2013-06-05 05:09:00,50.7,40.9,30.07,SW,215,0.0,2.2,69,0.00,,BKN220,0.00,VWS V14.01,2013-06-05 09:09:00,
2013-06-05 05:14:00,50.5,40.8,30.07,SW,216,0.0,0.0,69,0.00,,BKN220,0.00,VWS V14.01,2013-06-05 09:14:00,
2013-06-05 05:19:00,50.7,40.9,30.07,SW,216,0.0,0.0,69,0.00,,BKN220,0.00,VWS V14.01,2013-06-05 09:19:00,
2013-06-05 05:24:00,50.7,40.9,30.07,SW,215,0.0,0.0,69,0.00,,BKN220,0.00,VWS V14.01,2013-06-05 09:24:00,
2013-06-05 05:29:00,50.9,41.5,30.07,SW,216,3.6,3.6,70,0.00,,BKN220,0.00,VWS V14.01,2013-06-05 09:29:00,
2013-06-05 05:34:00,51.1,41.3,30.07,SW,223,2.7,4.5,69,0.00,,BKN220,0.00,VWS V14.01,2013-06-05 09:34:00,
2013-06-05 05:39:00,50.9,41.1,30.07,SW,214,2.7,5.4,69,0.00,,BKN220,0.00,VWS V14.01,2013-06-05 09:39:00,
2013-06-05 05:44:00,50.9,41.1,30.07,SW,222,2.7,3.6,69,0.00,,BKN220,0.00,VWS V14.01,2013-06-05 09:44:00,
2013-06-05 05:49:00,50.7,40.9,30.07,SW,222,2.7,2.7,69,0.00,,BKN220,0.00,VWS V14.01,2013-06-05 09:49:00,
2013-06-05 05:54:00,50.9,41.1,30.07,SW,222,0.0,2.7,69,0.00,,BKN220,0.00,VWS V14.01,2013-06-05 09:54:00,
2013-06-05 05:59:00,50.9,41.1,30.07,SW,223,3.6,3.6,69,0.00,,BKN220,0.00,VWS V14.01,2013-06-05 09:59:00,
2013-06-05 06:04:00,51.3,41.5,30.07,SW,221,0.0,3.6,69,0.00,,BKN210,0.00,VWS V14.01,2013-06-05 10:04:00,
2013-06-05 06:09:00,51.1,41.3,30.07,SW,221,0.0,2.2,69,0.00,,BKN210,0.00,VWS V14.01,2013-06-05 10:09:00,
2013-06-05 06:15:00,51.4,41.6,30.07,SW,221,0.0,0.0,69,0.00,,BKN210,0.00,VWS V14.01,2013-06-05 10:15:00,
2013-06-05 06:20:00,51.6,41.8,30.07,SW,221,0.0,0.0,69,0.00,,BKN210,0.00,VWS V14.01,2013-06-05 10:20:00,
2013-06-05 06:25:00,51.6,41.8,30.07,SW,221,0.0,0.0,69,0.00,,BKN210,0.00,VWS V14.01,2013-06-05 10:25:00,
2013-06-05 06:30:00,51.6,41.8,30.07,SW,233,3.6,3.6,69,0.00,,BKN210,0.00,VWS V14.01,2013-06-05 10:30:00,
2013-06-05 06:35:00,51.6,41.8,30.07,SW,228,0.0,0.0,69,0.00,,BKN210,0.00,VWS V14.01,2013-06-05 10:35:00,
2013-06-05 06:40:00,51.4,41.6,30.07,SW,228,0.0,3.1,69,0.00,,BKN210,0.00,VWS V14.01,2013-06-05 10:40:00,
2013-06-05 06:45:00,51.4,41.6,30.07,SW,228,0.0,2.7,69,0.00,,BKN210,0.00,VWS V14.01,2013-06-05 10:45:00,
2013-06-05 06:50:00,51.4,41.6,30.07,SW,228,0.0,0.0,69,0.00,,BKN210,0.00,VWS V14.01,2013-06-05 10:50:00,
2013-06-05 06:55:00,51.6,41.8,30.07,SW,228,0.0,0.0,69,0.00,,BKN210,0.00,VWS V14.01,2013-06-05 10:55:00,
2013-06-05 07:00:00,52.0,42.1,30.07,SW,228,0.0,0.0,69,0.00,,BKN210,0.00,VWS V14.01,2013-06-05 11:00:00,
2013-06-05 07:05:00,52.0,42.1,30.07,SW,228,0.0,0.0,69,0.00,,BKN220,0.00,VWS V14.01,2013-06-05 11:05:00,
2013-06-05 07:10:00,52.2,42.3,30.10,SW,228,0.0,0.0,69,0.00,,BKN220,0.00,VWS V14.01,2013-06-05 11:10:00,
2013-06-05 07:15:00,52.2,42.3,30.10,SW,228,0.0,0.0,69,0.00,,BKN220,0.00,VWS V14.01,2013-06-05 11:15:00,
2013-06-05 07:20:00,52.5,43.0,30.10,SW,228,0.0,0.0,70,0.00,,BKN220,0.00,VWS V14.01,2013-06-05 11:20:00,
2013-06-05 07:25:00,52.7,42.8,30.07,SW,228,0.0,0.0,69,0.00,,BKN220,0.00,VWS V14.01,2013-06-05 11:25:00,
2013-06-05 07:31:00,53.1,43.5,30.07,SW,228,0.0,0.0,70,0.00,,BKN220,0.00,VWS V14.01,2013-06-05 11:31:00,
2013-06-05 07:36:00,53.1,43.5,30.07,SSW,205,2.2,3.1,70,0.00,,BKN220,0.00,VWS V14.01,2013-06-05 11:36:00,
2013-06-05 07:41:00,53.2,43.0,30.10,SSW,205,0.0,2.7,68,0.00,,BKN220,0.00,VWS V14.01,2013-06-05 11:41:00,
2013-06-05 07:46:00,53.1,42.4,30.10,SSW,205,0.0,0.0,67,0.00,,BKN220,0.00,VWS V14.01,2013-06-05 11:46:00,
2013-06-05 07:51:00,53.4,42.4,30.10,SSW,205,0.0,0.0,66,0.00,,BKN220,0.00,VWS V14.01,2013-06-05 11:51:00,
2013-06-05 07:56:00,53.4,42.4,30.10,SSW,205,0.0,0.0,66,0.00,,BKN220,0.00,VWS V14.01,2013-06-05 11:56:00,
2013-06-05 08:01:00,53.4,42.0,30.10,SSW,205,0.0,0.0,65,0.00,,BKN220,0.00,VWS V14.01,2013-06-05 12:01:00,
2013-06-05 08:06:00,53.8,42.3,30.10,SSW,205,0.0,0.0,65,0.00,,BKN220,0.00,VWS V14.01,2013-06-05 12:06:00,
2013-06-05 08:11:00,54.1,42.7,30.10,SSW,205,0.0,0.0,65,0.00,,BKN220,0.00,VWS V14.01,2013-06-05 12:11:00,
2013-06-05 08:16:00,54.1,42.2,30.10,SSW,205,0.0,0.0,64,0.00,,BKN220,0.00,VWS V14.01,2013-06-05 12:16:00,
2013-06-05 08:21:00,54.5,42.6,30.10,SSW,205,0.0,0.0,64,0.00,,BKN220,0.00,VWS V14.01,2013-06-05 12:21:00,
2013-06-05 08:26:00,54.9,42.5,30.10,SSW,205,0.0,0.0,63,0.00,,BKN220,0.00,VWS V14.01,2013-06-05 12:26:00,
2013-06-05 08:31:00,55.0,43.1,30.10,SSW,205,0.0,0.0,64,0.00,,BKN220,0.00,VWS V14.01,2013-06-05 12:31:00,
2013-06-05 08:36:00,55.2,42.0,30.10,SSW,205,0.0,2.7,61,0.00,,BKN220,0.00,VWS V14.01,2013-06-05 12:36:00,
2013-06-05 08:41:00,55.4,42.2,30.10,ESE,117,0.0,2.2,61,0.00,,BKN220,0.00,VWS V14.01,2013-06-05 12:41:00,
2013-06-05 08:46:00,55.6,41.0,30.10,East,83,2.2,3.6,58,0.00,,BKN220,0.00,VWS V14.01,2013-06-05 12:46:00,
2013-06-05 08:51:00,55.8,41.7,30.10,East,83,2.2,3.1,59,0.00,,BKN220,0.00,VWS V14.01,2013-06-05 12:51:00,
2013-06-05 08:57:00,55.9,41.4,30.10,East,82,0.0,3.1,58,0.00,,BKN220,0.00,VWS V14.01,2013-06-05 12:57:00,
2013-06-05 09:02:00,55.9,40.9,30.10,NNE,32,3.1,3.6,57,0.00,,BKN220,0.00,VWS V14.01,2013-06-05 13:02:00,
2013-06-05 09:07:00,56.3,40.4,30.10,East,95,3.1,4.0,55,0.00,,BKN240,0.00,VWS V14.01,2013-06-05 13:07:00,
2013-06-05 09:12:00,56.7,41.2,30.10,ESE,113,0.0,3.1,56,0.00,,BKN240,0.00,VWS V14.01,2013-06-05 13:12:00,
2013-06-05 09:17:00,57.0,42.0,30.10,ENE,77,2.7,2.7,57,0.00,,BKN240,0.00,VWS V14.01,2013-06-05 13:17:00,
2013-06-05 09:22:00,57.2,40.7,30.10,WNW,301,2.7,3.1,54,0.00,,BKN240,0.00,VWS V14.01,2013-06-05 13:22:00,
2013-06-05 09:27:00,57.7,42.2,30.10,SSE,151,2.2,4.0,56,0.00,,BKN240,0.00,VWS V14.01,2013-06-05 13:27:00,
2013-06-05 09:32:00,58.1,42.0,30.10,ENE,62,0.0,4.0,55,0.00,,BKN240,0.00,VWS V14.01,2013-06-05 13:32:00,
2013-06-05 09:37:00,58.1,41.1,30.10,SE,142,0.0,0.0,53,0.00,,CLR,0.00,VWS V14.01,2013-06-05 13:37:00,
2013-06-05 09:42:00,58.1,41.6,30.10,NE,55,3.1,4.0,54,0.00,,CLR,0.00,VWS V14.01,2013-06-05 13:42:00,
2013-06-05 09:47:00,58.3,41.7,30.10,NE,48,3.1,4.0,54,0.00,,CLR,0.00,VWS V14.01,2013-06-05 13:47:00,
2013-06-05 09:52:00,58.5,41.9,30.10,NE,56,2.7,2.7,54,0.00,,CLR,0.00,VWS V14.01,2013-06-05 13:52:00,
2013-06-05 09:57:00,58.8,42.2,30.10,ENE,72,4.0,4.0,54,0.00,,CLR,0.00,VWS V14.01,2013-06-05 13:57:00,
2013-06-05 10:02:00,59.0,41.9,30.10,East,95,4.0,4.0,53,0.00,,CLR,0.00,VWS V14.01,2013-06-05 14:02:00,
2013-06-05 10:07:00,59.4,42.2,30.10,NE,36,3.6,3.6,53,0.00,,CLR,0.00,VWS V14.01,2013-06-05 14:07:00,
2013-06-05 10:12:00,59.7,42.1,30.10,East,82,3.6,3.6,52,0.00,,CLR,0.00,VWS V14.01,2013-06-05 14:12:00,
2013-06-05 10:17:00,60.1,42.9,30.10,NE,55,2.7,5.8,53,0.00,,CLR,0.00,VWS V14.01,2013-06-05 14:17:00,
2013-06-05 10:22:00,60.6,42.9,30.10,NE,36,5.8,5.8,52,0.00,,CLR,0.00,VWS V14.01,2013-06-05 14:22:00,
2013-06-05 10:27:00,60.6,42.4,30.10,ENE,75,4.0,7.6,51,0.00,,CLR,0.00,VWS V14.01,2013-06-05 14:27:00,
2013-06-05 10:33:00,61.0,42.7,30.10,East,93,2.7,3.6,51,0.00,,BKN250,0.00,VWS V14.01,2013-06-05 14:33:00,
2013-06-05 10:38:00,60.6,41.4,30.10,ENE,69,6.3,8.1,49,0.00,,BKN250,0.00,VWS V14.01,2013-06-05 14:38:00,
2013-06-05 10:43:00,61.2,41.9,30.10,NNE,30,4.9,4.9,49,0.00,,BKN250,0.00,VWS V14.01,2013-06-05 14:43:00,
2013-06-05 10:48:00,61.3,42.6,30.10,NE,52,5.4,5.8,50,0.00,,BKN250,0.00,VWS V14.01,2013-06-05 14:48:00,
2013-06-05 10:53:00,61.3,42.0,30.10,North,0,4.0,4.0,49,0.00,,BKN250,0.00,VWS V14.01,2013-06-05 14:53:00,
2013-06-05 10:58:00,61.5,42.2,30.10,ENE,63,3.6,4.0,49,0.00,,BKN250,0.00,VWS V14.01,2013-06-05 14:58:00,
2013-06-05 11:03:00,61.5,42.2,30.10,NE,53,3.6,3.6,49,0.00,,BKN250,0.00,VWS V14.01,2013-06-05 15:03:00,
2013-06-05 11:08:00,61.3,41.5,30.10,ENE,59,2.7,4.0,48,0.00,,BKN250,0.00,VWS V14.01,2013-06-05 15:08:00,
2013-06-05 11:13:00,61.3,41.5,30.10,East,94,2.7,4.0,48,0.00,,BKN250,0.00,VWS V14.01,2013-06-05 15:13:00,
2013-06-05 11:18:00,61.3,41.5,30.10,NE,43,2.7,5.4,48,0.00,,BKN250,0.00,VWS V14.01,2013-06-05 15:18:00,
2013-06-05 11:23:00,61.5,42.7,30.10,ENE,73,3.1,4.0,50,0.00,,BKN250,0.00,VWS V14.01,2013-06-05 15:23:00,
2013-06-05 11:28:00,61.3,41.5,30.10,NE,36,4.0,5.4,48,0.00,,BKN250,0.00,VWS V14.01,2013-06-05 15:28:00,
2013-06-05 11:33:00,61.7,42.4,30.10,NE,47,3.6,5.4,49,0.00,,BKN250,0.00,VWS V14.01,2013-06-05 15:33:00,
2013-06-05 11:38:00,62.1,42.2,30.10,North,357,2.7,4.0,48,0.00,,BKN250,0.00,VWS V14.01,2013-06-05 15:38:00,
2013-06-05 11:43:00,61.9,42.5,30.10,North,353,5.8,6.3,49,0.00,,BKN250,0.00,VWS V14.01,2013-06-05 15:43:00,
2013-06-05 11:48:00,61.7,42.4,30.10,NNE,27,3.6,6.3,49,0.00,,BKN250,0.00,VWS V14.01,2013-06-05 15:48:00,
2013-06-05 11:53:00,61.9,43.1,30.07,NE,49,5.8,6.3,50,0.00,,BKN250,0.00,VWS V14.01,2013-06-05 15:53:00,
2013-06-05 11:59:00,62.2,42.9,30.07,NNE,22,4.0,6.3,49,0.00,,BKN250,0.00,VWS V14.01,2013-06-05 15:59:00,
2013-06-05 12:04:00,62.2,42.3,30.07,East,99,3.6,5.4,48,0.00,,BKN250,0.00,VWS V14.01,2013-06-05 16:04:00,
2013-06-05 12:09:00,62.2,42.3,30.07,NE,54,5.4,6.3,48,0.00,,BKN250,0.00,VWS V14.01,2013-06-05 16:09:00,
2013-06-05 12:14:00,62.2,42.9,30.07,NE,35,5.4,7.6,49,0.00,,BKN250,0.00,VWS V14.01,2013-06-05 16:14:00,
2013-06-05 12:19:00,62.4,42.5,30.07,East,94,8.1,8.1,48,0.00,,BKN250,0.00,VWS V14.01,2013-06-05 16:19:00,
2013-06-05 12:24:00,63.0,43.0,30.07,East,79,3.6,8.1,48,0.00,,BKN250,0.00,VWS V14.01,2013-06-05 16:24:00,
2013-06-05 12:29:00,63.1,42.6,30.07,East,82,5.4,7.6,47,0.00,,BKN250,0.00,VWS V14.01,2013-06-05 16:29:00,
2013-06-05 12:34:00,63.3,43.3,30.07,NNE,15,5.4,6.3,48,0.00,,BKN250,0.00,VWS V14.01,2013-06-05 16:34:00,
2013-06-05 12:39:00,63.9,43.3,30.07,NE,43,8.1,8.1,47,0.00,,BKN250,0.00,VWS V14.01,2013-06-05 16:39:00,
2013-06-05 12:44:00,63.9,42.7,30.07,North,353,4.9,10.1,46,0.00,,BKN250,0.00,VWS V14.01,2013-06-05 16:44:00,
2013-06-05 12:49:00,64.6,42.8,30.07,NE,55,6.3,8.7,45,0.00,,BKN250,0.00,VWS V14.01,2013-06-05 16:49:00,
2013-06-05 12:54:00,64.9,43.1,30.07,NE,51,10.1,10.1,45,0.00,,BKN250,0.00,VWS V14.01,2013-06-05 16:54:00,
2013-06-05 12:59:00,65.3,43.4,30.07,ENE,76,5.8,7.6,45,0.00,,BKN250,0.00,VWS V14.01,2013-06-05 16:59:00,
2013-06-05 13:04:00,65.8,43.9,30.07,ENE,60,8.7,10.5,45,0.00,,BKN250,0.00,VWS V14.01,2013-06-05 17:04:00,
2013-06-05 13:09:00,66.2,43.1,30.04,East,87,5.8,8.7,43,0.00,,BKN250,0.00,VWS V14.01,2013-06-05 17:09:00,
2013-06-05 13:14:00,66.7,43.5,30.04,ENE,74,8.1,8.3,43,0.00,,BKN250,0.00,VWS V14.01,2013-06-05 17:14:00,
2013-06-05 13:20:00,66.7,43.5,30.04,NE,44,7.6,9.2,43,0.00,,BKN250,0.00,VWS V14.01,2013-06-05 17:20:00,
2013-06-05 13:25:00,66.9,42.5,30.04,NE,36,10.1,10.5,41,0.00,,BKN250,0.00,VWS V14.01,2013-06-05 17:25:00,
2013-06-05 13:30:00,66.6,40.9,30.04,ENE,58,8.3,10.5,39,0.00,,BKN250,0.00,VWS V14.01,2013-06-05 17:30:00,
2013-06-05 13:35:00,66.6,40.2,30.04,ESE,110,3.1,8.7,38,0.00,,BKN250,0.00,VWS V14.01,2013-06-05 17:35:00,
2013-06-05 13:40:00,66.7,41.0,30.04,NE,56,8.1,8.3,39,0.00,,BKN250,0.00,VWS V14.01,2013-06-05 17:40:00,
2013-06-05 13:45:00,67.3,41.5,30.04,ESE,106,4.0,7.6,39,0.00,,BKN250,0.00,VWS V14.01,2013-06-05 17:45:00,
2013-06-05 13:50:00,67.6,42.5,30.04,NE,43,5.8,8.7,40,0.00,,BKN250,0.00,VWS V14.01,2013-06-05 17:50:00,
2013-06-05 13:55:00,67.8,42.0,30.04,SE,138,0.0,6.7,39,0.00,,BKN250,0.00,VWS V14.01,2013-06-05 17:55:00,
2013-06-05 14:00:00,67.6,41.2,30.04,NE,49,7.6,9.2,38,0.00,,BKN250,0.00,VWS V14.01,2013-06-05 18:00:00,
2013-06-05 14:05:00,67.5,40.3,30.04,NNE,18,5.4,12.3,37,0.00,,BKN250,0.00,VWS V14.01,2013-06-05 18:05:00,
2013-06-05 14:10:00,67.8,41.3,30.04,NE,45,6.3,13.2,38,0.00,,BKN250,0.00,VWS V14.01,2013-06-05 18:10:00,
2013-06-05 14:15:00,68.0,41.5,30.04,East,81,5.8,8.3,38,0.00,,BKN250,0.00,VWS V14.01,2013-06-05 18:15:00,
2013-06-05 14:20:00,67.8,41.3,30.04,ENE,76,4.9,9.2,38,0.00,,BKN250,0.00,VWS V14.01,2013-06-05 18:20:00,
2013-06-05 14:25:00,68.2,41.6,30.04,NNE,28,6.3,9.2,38,0.00,,BKN250,0.00,VWS V14.01,2013-06-05 18:25:00,
2013-06-05 14:30:00,68.2,40.9,30.04,NE,51,6.3,10.1,37,0.00,,BKN250,0.00,VWS V14.01,2013-06-05 18:30:00,
2013-06-05 14:35:00,68.2,41.6,30.04,NE,35,5.8,8.3,38,0.00,,BKN250,0.00,VWS V14.01,2013-06-05 18:35:00,
2013-06-05 14:40:00,68.5,41.3,30.01,ENE,65,6.3,8.7,37,0.00,,BKN250,0.00,VWS V14.01,2013-06-05 18:40:00,
2013-06-05 14:45:00,68.5,41.3,30.01,SSE,154,4.0,8.1,37,0.00,,BKN250,0.00,VWS V14.01,2013-06-05 18:45:00,
2013-06-05 14:51:00,69.1,42.4,30.01,SE,133,2.7,8.7,38,0.00,,BKN250,0.00,VWS V14.01,2013-06-05 18:51:00,
2013-06-05 14:56:00,69.1,41.7,30.01,North,7,8.1,12.3,37,0.00,,BKN250,0.00,VWS V14.01,2013-06-05 18:56:00,
2013-06-05 15:01:00,68.9,40.9,30.01,East,86,5.8,8.1,36,0.00,,BKN250,0.00,VWS V14.01,2013-06-05 19:01:00,
2013-06-05 15:06:00,69.3,41.2,30.01,East,85,7.6,13.2,36,0.00,,BKN250,0.00,VWS V14.01,2013-06-05 19:06:00,
2013-06-05 15:11:00,69.4,41.3,30.01,NE,55,8.1,8.7,36,0.00,,BKN250,0.00,VWS V14.01,2013-06-05 19:11:00,
2013-06-05 15:16:00,69.1,40.3,30.01,NNE,28,8.1,12.8,35,0.00,,BKN250,0.00,VWS V14.01,2013-06-05 19:16:00,
2013-06-05 15:21:00,69.3,40.5,30.01,NE,41,8.3,11.0,35,0.00,,BKN250,0.00,VWS V14.01,2013-06-05 19:21:00,
2013-06-05 15:26:00,68.7,40.0,30.01,North,10,8.7,8.7,35,0.00,,BKN250,0.00,VWS V14.01,2013-06-05 19:26:00,
2013-06-05 15:32:00,68.4,40.4,30.01,NNE,19,6.7,12.8,36,0.00,,BKN250,0.00,VWS V14.01,2013-06-05 19:32:00,
2013-06-05 15:37:00,68.0,39.3,30.01,NNW,337,4.0,8.1,35,0.00,,BKN250,0.00,VWS V14.01,2013-06-05 19:37:00,
2013-06-05 15:42:00,68.2,40.2,30.01,NNE,24,3.6,3.6,36,0.00,,BKN250,0.00,VWS V14.01,2013-06-05 19:42:00,
2013-06-05 15:47:00,68.4,40.4,30.01,NE,47,5.8,11.0,36,0.00,,BKN250,0.00,VWS V14.01,2013-06-05 19:47:00,
2013-06-05 15:52:00,68.5,40.5,30.01,NNE,24,8.3,8.3,36,0.00,,BKN250,0.00,VWS V14.01,2013-06-05 19:52:00,
2013-06-05 15:57:00,68.2,39.5,30.01,ENE,62,5.4,7.6,35,0.00,,BKN250,0.00,VWS V14.01,2013-06-05 19:57:00,
2013-06-05 16:02:00,69.1,41.0,30.01,NE,49,6.3,6.3,36,0.00,,CLR,0.00,VWS V14.01,2013-06-05 20:02:00,
2013-06-05 16:07:00,69.4,41.3,30.01,NE,42,8.1,8.1,36,0.00,,CLR,0.00,VWS V14.01,2013-06-05 20:07:00,
2013-06-05 16:12:00,69.4,40.6,30.01,NNE,16,8.7,8.7,35,0.00,,CLR,0.00,VWS V14.01,2013-06-05 20:12:00,
2013-06-05 16:17:00,68.9,40.2,30.01,ENE,66,8.3,10.1,35,0.00,,CLR,0.00,VWS V14.01,2013-06-05 20:17:00,
2013-06-05 16:23:00,69.1,40.3,30.01,NNE,21,6.3,9.2,35,0.00,,CLR,0.00,VWS V14.01,2013-06-05 20:23:00,
2013-06-05 16:28:00,69.4,41.3,30.01,NNE,33,5.8,6.3,36,0.00,,CLR,0.00,VWS V14.01,2013-06-05 20:28:00,
2013-06-05 16:33:00,68.9,40.2,30.01,NE,52,10.1,10.5,35,0.00,,CLR,0.00,VWS V14.01,2013-06-05 20:33:00,
2013-06-05 16:38:00,68.5,39.8,30.01,East,88,5.8,10.1,35,0.00,,CLR,0.00,VWS V14.01,2013-06-05 20:38:00,
2013-06-05 16:43:00,68.2,38.8,30.01,ENE,72,5.8,10.1,34,0.00,,CLR,0.00,VWS V14.01,2013-06-05 20:43:00,
2013-06-05 16:48:00,68.2,39.5,30.01,NE,39,4.9,8.1,35,0.00,,CLR,0.00,VWS V14.01,2013-06-05 20:48:00,
2013-06-05 16:53:00,68.5,39.8,30.01,NNE,25,4.9,8.3,35,0.00,,CLR,0.00,VWS V14.01,2013-06-05 20:53:00,
2013-06-05 16:58:00,69.1,41.0,30.01,NE,40,5.8,10.1,36,0.00,,CLR,0.00,VWS V14.01,2013-06-05 20:58:00,
2013-06-05 17:03:00,68.5,39.8,30.01,NNE,27,5.4,9.6,35,0.00,,BKN260,0.00,VWS V14.01,2013-06-05 21:03:00,
2013-06-05 17:08:00,68.7,40.0,30.01,NE,55,5.4,8.7,35,0.00,,BKN260,0.00,VWS V14.01,2013-06-05 21:08:00,
2013-06-05 17:13:00,68.7,40.0,30.01,NE,50,8.1,8.7,35,0.00,,BKN260,0.00,VWS V14.01,2013-06-05 21:13:00,
2013-06-05 17:18:00,68.7,40.0,30.01,NE,47,8.3,12.8,35,0.00,,BKN260,0.00,VWS V14.01,2013-06-05 21:18:00,
2013-06-05 17:23:00,68.0,39.3,30.01,North,1,4.9,11.0,35,0.00,,BKN260,0.00,VWS V14.01,2013-06-05 21:23:00,
2013-06-05 17:28:00,67.6,39.0,30.01,North,10,4.0,8.3,35,0.00,,BKN260,0.00,VWS V14.01,2013-06-05 21:28:00,
2013-06-05 17:33:00,67.1,38.6,30.01,NE,47,5.8,10.1,35,0.00,,BKN260,0.00,VWS V14.01,2013-06-05 21:33:00,
2013-06-05 17:38:00,66.7,38.2,29.98,NE,50,8.3,10.1,35,0.00,,BKN260,0.00,VWS V14.01,2013-06-05 21:38:00,
2013-06-05 17:44:00,66.7,38.2,29.98,NNE,32,6.3,8.7,35,0.00,,BKN260,0.00,VWS V14.01,2013-06-05 21:44:00,
2013-06-05 17:49:00,66.9,38.4,29.98,ENE,74,5.8,12.3,35,0.00,,BKN260,0.00,VWS V14.01,2013-06-05 21:49:00,
2013-06-05 17:54:00,67.1,38.6,29.98,NE,55,5.8,8.3,35,0.00,,BKN260,0.00,VWS V14.01,2013-06-05 21:54:00,
2013-06-05 17:59:00,66.7,38.2,29.98,ENE,68,7.6,7.6,35,0.00,,BKN260,0.00,VWS V14.01,2013-06-05 21:59:00,
2013-06-05 18:04:00,66.9,38.4,29.98,ENE,70,8.1,11.0,35,0.00,,BKN280,0.00,VWS V14.01,2013-06-05 22:04:00,
2013-06-05 18:09:00,67.8,39.2,29.98,East,96,8.1,8.3,35,0.00,,BKN280,0.00,VWS V14.01,2013-06-05 22:09:00,
2013-06-05 18:14:00,67.6,39.0,29.98,NE,47,7.6,8.7,35,0.00,,BKN280,0.00,VWS V14.01,2013-06-05 22:14:00,
2013-06-05 18:19:00,67.6,38.3,29.98,NE,47,8.1,11.0,34,0.00,,BKN280,0.00,VWS V14.01,2013-06-05 22:19:00,
2013-06-05 18:24:00,67.5,38.1,29.98,NE,51,8.3,12.8,34,0.00,,BKN280,0.00,VWS V14.01,2013-06-05 22:24:00,
2013-06-05 18:29:00,67.6,38.3,29.98,ENE,59,5.8,8.7,34,0.00,,BKN280,0.00,VWS V14.01,2013-06-05 22:29:00,
2013-06-05 18:34:00,66.6,37.3,29.98,NNE,24,5.4,13.6,34,0.00,,BKN270,0.00,VWS V14.01,2013-06-05 22:34:00,
2013-06-05 18:39:00,66.4,37.2,29.98,NNE,27,5.4,7.6,34,0.00,,BKN270,0.00,VWS V14.01,2013-06-05 22:39:00,
2013-06-05 18:44:00,65.5,36.4,29.98,North,9,10.1,12.3,34,0.00,,BKN270,0.00,VWS V14.01,2013-06-05 22:44:00,
2013-06-05 18:49:00,64.8,35.8,29.98,NNE,30,7.6,10.1,34,0.00,,BKN270,0.00,VWS V14.01,2013-06-05 22:49:00,
2013-06-05 18:54:00,64.4,35.5,29.98,North,353,5.4,8.7,34,0.00,,BKN270,0.00,VWS V14.01,2013-06-05 22:54:00,
2013-06-05 18:59:00,64.2,36.0,29.98,NNE,25,5.4,10.5,35,0.00,,BKN270,0.00,VWS V14.01,2013-06-05 22:59:00,
2013-06-05 19:04:00,64.0,35.9,29.98,NE,39,8.1,8.1,35,0.00,,BKN270,0.00,VWS V14.01,2013-06-05 23:04:00,
2013-06-05 19:09:00,63.5,35.4,29.98,NNE,20,10.5,11.4,35,0.00,,BKN270,0.00,VWS V14.01,2013-06-05 23:09:00,
2013-06-05 19:14:00,63.5,35.4,29.98,NE,37,5.8,8.7,35,0.00,,BKN270,0.00,VWS V14.01,2013-06-05 23:14:00,
2013-06-05 19:19:00,63.3,35.2,29.98,NNE,19,6.3,8.7,35,0.00,,BKN270,0.00,VWS V14.01,2013-06-05 23:19:00,
2013-06-05 19:24:00,62.8,34.8,29.98,NE,46,5.8,8.3,35,0.00,,BKN270,0.00,VWS V14.01,2013-06-05 23:24:00,
2013-06-05 19:29:00,62.6,34.6,29.98,North,5,5.4,8.1,35,0.00,,BKN270,0.00,VWS V14.01,2013-06-05 23:29:00,
2013-06-05 19:35:00,62.1,34.1,29.98,NNE,27,7.6,10.5,35,0.00,,BKN270,0.00,VWS V14.01,2013-06-05 23:35:00,
2013-06-05 19:40:00,61.7,33.8,29.98,NE,36,5.4,11.0,35,0.00,,BKN270,0.00,VWS V14.01,2013-06-05 23:40:00,
2013-06-05 19:45:00,61.7,33.8,29.98,East,86,8.1,8.7,35,0.00,,BKN270,0.00,VWS V14.01,2013-06-05 23:45:00,
2013-06-05 19:50:00,61.7,34.5,29.98,NNE,32,6.3,8.3,36,0.00,,BKN270,0.00,VWS V14.01,2013-06-05 23:50:00,
2013-06-05 19:55:00,61.3,34.2,29.98,NNE,18,8.7,11.0,36,0.00,,BKN270,0.00,VWS V14.01,2013-06-05 23:55:00,
2013-06-05 20:00:00,60.8,33.7,29.98,NE,42,5.8,8.3,36,0.00,,BKN270,0.00,VWS V14.01,2013-06-06 00:00:00,
2013-06-05 20:05:00,60.4,34.1,29.98,North,7,3.6,7.6,37,0.00,,BKN280,0.00,VWS V14.01,2013-06-06 00:05:00,
2013-06-05 20:10:00,60.3,33.9,29.98,NE,38,8.1,8.3,37,0.00,,BKN280,0.00,VWS V14.01,2013-06-06 00:10:00,
2013-06-05 20:15:00,59.9,33.6,29.98,ENE,59,6.3,8.1,37,0.00,,BKN280,0.00,VWS V14.01,2013-06-06 00:15:00,
2013-06-05 20:20:00,59.7,33.4,29.98,NE,56,4.0,8.1,37,0.00,,BKN280,0.00,VWS V14.01,2013-06-06 00:20:00,
2013-06-05 20:26:00,59.4,33.1,29.95,ENE,67,5.4,6.3,37,0.00,,BKN280,0.00,VWS V14.01,2013-06-06 00:26:00,
2013-06-05 20:31:00,59.4,33.1,29.95,ENE,69,6.3,8.3,37,0.00,,BKN280,0.00,VWS V14.01,2013-06-06 00:31:00,
2013-06-05 20:36:00,59.2,33.6,29.95,NE,43,5.8,8.3,38,0.00,,BKN280,0.00,VWS V14.01,2013-06-06 00:36:00,
2013-06-05 20:41:00,58.8,33.3,29.98,ENE,71,4.9,8.3,38,0.00,,BKN280,0.00,VWS V14.01,2013-06-06 00:41:00,
2013-06-05 20:46:00,58.6,33.1,29.98,NNE,32,3.6,6.7,38,0.00,,BKN280,0.00,VWS V14.01,2013-06-06 00:46:00,
2013-06-05 20:51:00,58.5,33.6,29.98,NE,55,5.8,5.8,39,0.00,,BKN280,0.00,VWS V14.01,2013-06-06 00:51:00,
2013-06-05 20:56:00,58.5,33.6,29.98,ENE,67,5.8,6.3,39,0.00,,BKN280,0.00,VWS V14.01,2013-06-06 00:56:00,
2013-06-05 21:01:00,58.3,33.5,29.98,ENE,60,3.6,8.3,39,0.00,,BKN280,0.00,VWS V14.01,2013-06-06 01:01:00,
2013-06-05 21:06:00,58.1,33.9,29.98,ENE,73,3.1,6.3,40,0.00,,BKN250,0.00,VWS V14.01,2013-06-06 01:06:00,
2013-06-05 21:11:00,57.9,33.8,29.98,ENE,65,3.1,5.8,40,0.00,,BKN250,0.00,VWS V14.01,2013-06-06 01:11:00,
2013-06-05 21:16:00,57.7,33.6,29.98,NE,44,4.0,6.3,40,0.00,,BKN250,0.00,VWS V14.01,2013-06-06 01:16:00,
2013-06-05 21:21:00,57.6,34.1,29.98,NE,49,5.4,5.4,41,0.00,,BKN250,0.00,VWS V14.01,2013-06-06 01:21:00,
2013-06-05 21:26:00,57.6,34.1,29.98,ENE,65,4.9,4.9,41,0.00,,BKN250,0.00,VWS V14.01,2013-06-06 01:26:00,
2013-06-05 21:31:00,57.4,33.9,29.98,ENE,68,3.1,4.9,41,0.00,,BKN250,0.00,VWS V14.01,2013-06-06 01:31:00,
2013-06-05 21:36:00,57.4,33.9,29.98,ENE,60,3.6,5.4,41,0.00,,BKN250,0.00,VWS V14.01,2013-06-06 01:36:00,
2013-06-05 21:41:00,57.2,33.7,29.98,East,82,4.0,5.4,41,0.00,,BKN250,0.00,VWS V14.01,2013-06-06 01:41:00,
2013-06-05 21:46:00,57.2,33.7,29.98,ENE,62,4.0,6.3,41,0.00,,BKN250,0.00,VWS V14.01,2013-06-06 01:46:00,
2013-06-05 21:51:00,57.0,33.6,29.98,ESE,115,2.7,4.0,41,0.00,,BKN250,0.00,VWS V14.01,2013-06-06 01:51:00,
2013-06-05 21:56:00,56.8,33.4,29.98,East,93,5.4,5.4,41,0.00,,BKN250,0.00,VWS V14.01,2013-06-06 01:56:00,
2013-06-05 22:01:00,56.8,33.4,29.98,East,80,2.7,5.4,41,0.00,,BKN250,0.00,VWS V14.01,2013-06-06 02:01:00,
2013-06-05 22:06:00,56.7,33.2,29.98,East,85,3.1,5.8,41,0.00,,BKN250,0.00,VWS V14.01,2013-06-06 02:06:00,
2013-06-05 22:11:00,56.7,33.2,29.98,ESE,112,3.1,3.1,41,0.00,,BKN250,0.00,VWS V14.01,2013-06-06 02:11:00,
2013-06-05 22:17:00,56.5,33.7,29.98,ENE,74,2.7,4.0,42,0.00,,BKN250,0.00,VWS V14.01,2013-06-06 02:17:00,
2013-06-05 22:22:00,56.5,33.7,29.98,East,81,2.7,2.7,42,0.00,,BKN250,0.00,VWS V14.01,2013-06-06 02:22:00,
2013-06-05 22:27:00,56.3,33.5,29.98,East,85,2.7,5.4,42,0.00,,BKN250,0.00,VWS V14.01,2013-06-06 02:27:00,
2013-06-05 22:32:00,56.1,33.4,29.98,East,95,3.6,3.6,42,0.00,,BKN250,0.00,VWS V14.01,2013-06-06 02:32:00,
2013-06-05 22:37:00,56.1,33.4,29.98,East,95,4.0,4.0,42,0.00,,BKN250,0.00,VWS V14.01,2013-06-06 02:37:00,
2013-06-05 22:42:00,56.1,33.4,29.98,ENE,60,5.4,5.4,42,0.00,,BKN250,0.00,VWS V14.01,2013-06-06 02:42:00,
2013-06-05 22:47:00,56.3,33.5,29.98,NE,42,4.0,4.0,42,0.00,,BKN250,0.00,VWS V14.01,2013-06-06 02:47:00,
2013-06-05 22:52:00,56.1,33.4,29.98,East,93,3.1,3.6,42,0.00,,BKN250,0.00,VWS V14.01,2013-06-06 02:52:00,
2013-06-05 22:57:00,56.1,33.4,29.98,East,87,4.0,4.9,42,0.00,,BKN250,0.00,VWS V14.01,2013-06-06 02:57:00,
2013-06-05 23:02:00,56.1,33.4,29.98,ENE,74,3.1,4.0,42,0.00,,BKN250,0.00,VWS V14.01,2013-06-06 03:02:00,
2013-06-05 23:07:00,56.1,33.4,29.98,East,82,4.0,4.0,42,0.00,,BKN220,0.00,VWS V14.01,2013-06-06 03:07:00,
2013-06-05 23:12:00,56.1,33.4,29.98,East,85,2.2,2.7,42,0.00,,BKN220,0.00,VWS V14.01,2013-06-06 03:12:00,
2013-06-05 23:17:00,55.9,33.2,29.98,East,84,0.0,4.0,42,0.00,,BKN220,0.00,VWS V14.01,2013-06-06 03:17:00,
2013-06-05 23:22:00,56.1,34.0,29.98,SE,133,3.6,4.0,43,0.00,,BKN220,0.00,VWS V14.01,2013-06-06 03:22:00,
2013-06-05 23:27:00,56.1,34.0,29.98,NE,50,4.0,4.9,43,0.00,,BKN220,0.00,VWS V14.01,2013-06-06 03:27:00,
2013-06-05 23:32:00,55.9,33.8,29.98,East,92,3.1,4.0,43,0.00,,BKN220,0.00,VWS V14.01,2013-06-06 03:32:00,
2013-06-05 23:37:00,56.1,34.0,29.98,ENE,73,3.6,3.6,43,0.00,,BKN220,0.00,VWS V14.01,2013-06-06 03:37:00,
2013-06-05 23:42:00,55.9,34.4,29.98,ENE,59,3.6,3.6,44,0.00,,BKN220,0.00,VWS V14.01,2013-06-06 03:42:00,
2013-06-05 23:47:00,55.9,34.4,29.98,East,79,0.0,4.0,44,0.00,,BKN220,0.00,VWS V14.01,2013-06-06 03:47:00,
2013-06-05 23:53:00,55.9,34.4,29.98,NE,50,3.1,5.8,44,0.00,,BKN220,0.00,VWS V14.01,2013-06-06 03:53:00,
2013-06-05 23:58:00,55.9,34.4,29.98,East,84,2.7,2.7,44,0.00,,BKN220,0.00,VWS V14.01,2013-06-06 03:58:00,